This is the latest recevied weather packets stored in our database for station/object VU3DUE-WX. If no packets are shown the sender has not sent any weather packets the latest 10 day(s).
| Time | Temp. | Humidity | Pressure | Rain* | Wind** | Luminosity | Snow |
|---|---|---|---|---|---|---|---|
| 1788022119 | 26.11° C | 70% | 912.6 hPa | - | - | - | - |
| 1788021519 | 26.67° C | 69% | 912.6 hPa | - | - | - | - |
| 1788020919 | 26.11° C | 68% | 912.7 hPa | - | - | - | - |
| 1788020319 | 26.11° C | 69% | 912.6 hPa | - | - | - | - |
| 1788019719 | 26.11° C | 70% | 912.6 hPa | - | - | - | - |
| 1788019119 | 26.11° C | 71% | 912.6 hPa | - | - | - | - |
| 1788018519 | 25.56° C | 72% | 912.6 hPa | - | - | - | - |
| 1788017843 | 24.44° C | 72% | 912.5 hPa | - | - | - | - |
| 1787988960 | 26.67° C | 62% | 910.8 hPa | - | - | - | - |
| 1787988360 | 26.67° C | 63% | 910.9 hPa | - | - | - | - |
| 1787987760 | 26.67° C | 64% | 911.1 hPa | - | - | - | - |
| 1787987160 | 26.67° C | 60% | 911.2 hPa | - | - | - | - |
| 1787986608 | 26.67° C | 64% | 911.5 hPa | - | - | - | - |
| 1787986008 | 26.67° C | 64% | 911.6 hPa | - | - | - | - |
| 1787985407 | 26.67° C | 65% | 911.9 hPa | - | - | - | - |
| 1787984808 | 26.67° C | 64% | 911.8 hPa | - | - | - | - |
| 1787984570 | 26.67° C | 61% | 911.9 hPa | - | - | - | - |
| 1787984527 | 26.67° C | 61% | 911.8 hPa | - | - | - | - |
| 1787984428 | 26.67° C | 61% | 911.9 hPa | - | - | - | - |
| 1787984320 | 26.67° C | 61% | 911.9 hPa | - | - | - | - |
| 1787984150 | 26.67° C | 61% | 912 hPa | - | - | - | - |
| 1787984076 | 26.67° C | 61% | 912 hPa | - | - | - | - |
| 1787983985 | 26.67° C | 62% | 912 hPa | - | - | - | - |
| 1787983751 | 26.67° C | 62% | 912.1 hPa | - | - | - | - |
| 1787983152 | 26.11° C | 62% | 912.2 hPa | - | - | - | - |
* Rain since midnight (hover to see other rain measurements)
** Current wind speed in m/s (hover to see current wind gust speed)